sensor_id;sensor_type;location;lat;lon;timestamp;P1;durP1;ratioP1;P2;durP2;ratioP2
11414;SDS011;5763;42.714;23.244;2023-06-22T00:02:01;8.18;;;7.38;;
11414;SDS011;5763;42.714;23.244;2023-06-22T00:04:28;8.05;;;7.25;;
11414;SDS011;5763;42.714;23.244;2023-06-22T00:06:55;7.55;;;6.85;;
11414;SDS011;5763;42.714;23.244;2023-06-22T00:09:22;8.15;;;7.35;;
11414;SDS011;5763;42.714;23.244;2023-06-22T00:11:48;7.63;;;6.93;;
11414;SDS011;5763;42.714;23.244;2023-06-22T00:14:15;8.43;;;7.47;;
11414;SDS011;5763;42.714;23.244;2023-06-22T00:16:44;8.57;;;7.65;;
11414;SDS011;5763;42.714;23.244;2023-06-22T00:19:13;8.75;;;7.85;;
11414;SDS011;5763;42.714;23.244;2023-06-22T00:21:40;7.50;;;6.80;;
11414;SDS011;5763;42.714;23.244;2023-06-22T00:24:07;7.28;;;6.57;;
11414;SDS011;5763;42.714;23.244;2023-06-22T00:26:34;7.60;;;6.80;;
11414;SDS011;5763;42.714;23.244;2023-06-22T00:29:01;7.70;;;6.90;;
11414;SDS011;5763;42.714;23.244;2023-06-22T00:31:28;7.68;;;6.97;;
11414;SDS011;5763;42.714;23.244;2023-06-22T00:33:56;8.10;;;7.30;;
11414;SDS011;5763;42.714;23.244;2023-06-22T00:36:23;7.82;;;7.13;;
11414;SDS011;5763;42.714;23.244;2023-06-22T00:38:49;8.13;;;7.32;;
11414;SDS011;5763;42.714;23.244;2023-06-22T00:41:16;9.90;;;7.20;;
11414;SDS011;5763;42.714;23.244;2023-06-22T00:43:45;8.07;;;7.38;;
11414;SDS011;5763;42.714;23.244;2023-06-22T00:46:12;7.53;;;6.90;;
11414;SDS011;5763;42.714;23.244;2023-06-22T00:48:39;7.38;;;6.68;;
11414;SDS011;5763;42.714;23.244;2023-06-22T00:51:08;8.75;;;7.35;;
11414;SDS011;5763;42.714;23.244;2023-06-22T00:53:35;8.43;;;7.63;;
11414;SDS011;5763;42.714;23.244;2023-06-22T00:56:03;9.02;;;8.13;;
11414;SDS011;5763;42.714;23.244;2023-06-22T00:58:31;8.43;;;7.57;;
11414;SDS011;5763;42.714;23.244;2023-06-22T01:00:58;8.27;;;7.47;;
11414;SDS011;5763;42.714;23.244;2023-06-22T01:03:26;7.65;;;6.95;;
11414;SDS011;5763;42.714;23.244;2023-06-22T01:05:53;8.02;;;7.22;;
11414;SDS011;5763;42.714;23.244;2023-06-22T01:08:29;8.52;;;7.45;;
11414;SDS011;5763;42.714;23.244;2023-06-22T01:11:05;8.45;;;7.57;;
11414;SDS011;5763;42.714;23.244;2023-06-22T01:13:36;8.52;;;7.82;;
11414;SDS011;5763;42.714;23.244;2023-06-22T01:16:09;10.40;;;8.73;;
11414;SDS011;5763;42.714;23.244;2023-06-22T01:18:42;12.98;;;8.95;;
11414;SDS011;5763;42.714;23.244;2023-06-22T01:21:11;9.13;;;8.27;;
11414;SDS011;5763;42.714;23.244;2023-06-22T01:23:50;11.68;;;8.13;;
11414;SDS011;5763;42.714;23.244;2023-06-22T01:26:25;9.35;;;8.10;;
11414;SDS011;5763;42.714;23.244;2023-06-22T01:29:02;8.52;;;7.72;;
11414;SDS011;5763;42.714;23.244;2023-06-22T01:31:30;9.63;;;8.25;;
11414;SDS011;5763;42.714;23.244;2023-06-22T01:34:00;11.77;;;8.82;;
11414;SDS011;5763;42.714;23.244;2023-06-22T01:36:29;8.73;;;7.93;;
11414;SDS011;5763;42.714;23.244;2023-06-22T01:38:58;8.65;;;7.75;;
11414;SDS011;5763;42.714;23.244;2023-06-22T01:41:26;8.32;;;7.53;;
11414;SDS011;5763;42.714;23.244;2023-06-22T01:43:55;9.85;;;7.57;;
11414;SDS011;5763;42.714;23.244;2023-06-22T01:46:24;10.10;;;7.40;;
11414;SDS011;5763;42.714;23.244;2023-06-22T01:48:51;9.30;;;8.35;;
11414;SDS011;5763;42.714;23.244;2023-06-22T01:51:19;8.07;;;7.32;;
11414;SDS011;5763;42.714;23.244;2023-06-22T01:53:45;8.75;;;7.22;;
11414;SDS011;5763;42.714;23.244;2023-06-22T01:56:13;8.80;;;7.97;;
11414;SDS011;5763;42.714;23.244;2023-06-22T01:58:43;8.88;;;7.97;;
11414;SDS011;5763;42.714;23.244;2023-06-22T02:01:17;8.50;;;7.63;;
11414;SDS011;5763;42.714;23.244;2023-06-22T02:03:54;9.00;;;8.10;;
11414;SDS011;5763;42.714;23.244;2023-06-22T02:06:27;8.00;;;7.20;;
11414;SDS011;5763;42.714;23.244;2023-06-22T02:09:01;8.65;;;7.82;;
11414;SDS011;5763;42.714;23.244;2023-06-22T02:11:31;9.52;;;8.38;;
11414;SDS011;5763;42.714;23.244;2023-06-22T02:14:01;9.38;;;8.38;;
11414;SDS011;5763;42.714;23.244;2023-06-22T02:16:30;8.38;;;7.63;;
11414;SDS011;5763;42.714;23.244;2023-06-22T02:18:59;8.70;;;7.90;;
11414;SDS011;5763;42.714;23.244;2023-06-22T02:21:28;9.20;;;8.23;;
11414;SDS011;5763;42.714;23.244;2023-06-22T02:23:55;9.65;;;8.13;;
11414;SDS011;5763;42.714;23.244;2023-06-22T02:26:22;8.95;;;8.07;;
11414;SDS011;5763;42.714;23.244;2023-06-22T02:28:51;9.82;;;8.77;;
11414;SDS011;5763;42.714;23.244;2023-06-22T02:31:18;9.15;;;8.30;;
11414;SDS011;5763;42.714;23.244;2023-06-22T02:33:45;9.63;;;8.65;;
11414;SDS011;5763;42.714;23.244;2023-06-22T02:36:15;9.90;;;8.77;;
11414;SDS011;5763;42.714;23.244;2023-06-22T02:38:42;9.95;;;8.15;;
11414;SDS011;5763;42.714;23.244;2023-06-22T02:41:13;9.63;;;8.35;;
11414;SDS011;5763;42.714;23.244;2023-06-22T02:43:43;8.70;;;7.85;;
11414;SDS011;5763;42.714;23.244;2023-06-22T02:46:11;10.35;;;9.27;;
11414;SDS011;5763;42.714;23.244;2023-06-22T02:48:39;14.68;;;9.40;;
11414;SDS011;5763;42.714;23.244;2023-06-22T02:51:06;10.07;;;9.15;;
11414;SDS011;5763;42.714;23.244;2023-06-22T02:53:34;9.65;;;8.70;;
11414;SDS011;5763;42.714;23.244;2023-06-22T02:56:01;11.55;;;9.00;;
11414;SDS011;5763;42.714;23.244;2023-06-22T02:58:30;8.45;;;7.55;;
11414;SDS011;5763;42.714;23.244;2023-06-22T03:01:04;9.20;;;8.30;;
11414;SDS011;5763;42.714;23.244;2023-06-22T03:03:31;9.38;;;8.00;;
11414;SDS011;5763;42.714;23.244;2023-06-22T03:05:58;8.05;;;7.28;;
11414;SDS011;5763;42.714;23.244;2023-06-22T03:08:27;8.55;;;7.65;;
11414;SDS011;5763;42.714;23.244;2023-06-22T03:10:55;7.50;;;6.80;;
11414;SDS011;5763;42.714;23.244;2023-06-22T03:13:22;9.77;;;7.22;;
11414;SDS011;5763;42.714;23.244;2023-06-22T03:15:50;8.02;;;7.22;;
11414;SDS011;5763;42.714;23.244;2023-06-22T03:18:17;7.88;;;7.13;;
11414;SDS011;5763;42.714;23.244;2023-06-22T03:20:44;10.15;;;7.07;;
11414;SDS011;5763;42.714;23.244;2023-06-22T03:23:11;8.13;;;7.32;;
11414;SDS011;5763;42.714;23.244;2023-06-22T03:25:38;9.15;;;7.43;;
11414;SDS011;5763;42.714;23.244;2023-06-22T03:28:06;8.80;;;7.72;;
11414;SDS011;5763;42.714;23.244;2023-06-22T03:30:33;8.13;;;7.32;;
11414;SDS011;5763;42.714;23.244;2023-06-22T03:33:00;8.07;;;7.28;;
11414;SDS011;5763;42.714;23.244;2023-06-22T03:35:27;8.65;;;7.75;;
11414;SDS011;5763;42.714;23.244;2023-06-22T03:37:53;10.05;;;8.52;;
11414;SDS011;5763;42.714;23.244;2023-06-22T03:40:20;8.80;;;8.00;;
11414;SDS011;5763;42.714;23.244;2023-06-22T03:42:47;10.73;;;8.57;;
11414;SDS011;5763;42.714;23.244;2023-06-22T03:45:15;9.32;;;8.43;;
11414;SDS011;5763;42.714;23.244;2023-06-22T03:47:42;9.10;;;8.20;;
11414;SDS011;5763;42.714;23.244;2023-06-22T03:50:09;9.32;;;7.70;;
11414;SDS011;5763;42.714;23.244;2023-06-22T03:52:36;8.85;;;8.05;;
11414;SDS011;5763;42.714;23.244;2023-06-22T03:55:03;9.15;;;8.25;;
11414;SDS011;5763;42.714;23.244;2023-06-22T03:57:30;9.27;;;8.30;;
11414;SDS011;5763;42.714;23.244;2023-06-22T03:59:57;10.43;;;8.65;;
11414;SDS011;5763;42.714;23.244;2023-06-22T04:02:26;10.30;;;8.18;;
11414;SDS011;5763;42.714;23.244;2023-06-22T04:04:53;9.70;;;8.18;;
11414;SDS011;5763;42.714;23.244;2023-06-22T04:07:20;10.40;;;7.95;;
11414;SDS011;5763;42.714;23.244;2023-06-22T04:09:47;8.45;;;7.68;;
11414;SDS011;5763;42.714;23.244;2023-06-22T04:12:13;8.90;;;7.93;;
11414;SDS011;5763;42.714;23.244;2023-06-22T04:14:40;8.70;;;7.82;;
11414;SDS011;5763;42.714;23.244;2023-06-22T04:17:07;8.25;;;7.30;;
11414;SDS011;5763;42.714;23.244;2023-06-22T04:19:35;9.10;;;8.20;;
11414;SDS011;5763;42.714;23.244;2023-06-22T04:22:02;8.85;;;7.88;;
11414;SDS011;5763;42.714;23.244;2023-06-22T04:24:29;8.57;;;7.68;;
11414;SDS011;5763;42.714;23.244;2023-06-22T04:26:56;9.18;;;7.85;;
11414;SDS011;5763;42.714;23.244;2023-06-22T04:29:22;9.02;;;8.13;;
11414;SDS011;5763;42.714;23.244;2023-06-22T04:31:53;8.90;;;8.00;;
11414;SDS011;5763;42.714;23.244;2023-06-22T04:34:22;10.25;;;8.10;;
11414;SDS011;5763;42.714;23.244;2023-06-22T04:36:52;11.00;;;8.27;;
11414;SDS011;5763;42.714;23.244;2023-06-22T04:39:19;9.57;;;8.38;;
11414;SDS011;5763;42.714;23.244;2023-06-22T04:41:46;11.77;;;7.97;;
11414;SDS011;5763;42.714;23.244;2023-06-22T04:44:14;10.40;;;9.18;;
11414;SDS011;5763;42.714;23.244;2023-06-22T04:46:49;10.40;;;9.40;;
11414;SDS011;5763;42.714;23.244;2023-06-22T04:49:19;9.98;;;7.97;;
11414;SDS011;5763;42.714;23.244;2023-06-22T04:51:47;13.20;;;9.80;;
11414;SDS011;5763;42.714;23.244;2023-06-22T04:54:15;15.65;;;14.05;;
11414;SDS011;5763;42.714;23.244;2023-06-22T04:56:42;17.45;;;10.38;;
11414;SDS011;5763;42.714;23.244;2023-06-22T04:59:12;11.38;;;10.18;;
11414;SDS011;5763;42.714;23.244;2023-06-22T05:01:39;10.85;;;9.70;;
11414;SDS011;5763;42.714;23.244;2023-06-22T05:04:06;11.80;;;10.63;;
11414;SDS011;5763;42.714;23.244;2023-06-22T05:06:34;11.93;;;10.45;;
11414;SDS011;5763;42.714;23.244;2023-06-22T05:09:01;17.52;;;13.02;;
11414;SDS011;5763;42.714;23.244;2023-06-22T05:11:32;13.90;;;12.55;;
11414;SDS011;5763;42.714;23.244;2023-06-22T05:13:59;14.15;;;11.60;;
11414;SDS011;5763;42.714;23.244;2023-06-22T05:16:27;14.98;;;12.60;;
11414;SDS011;5763;42.714;23.244;2023-06-22T05:18:54;12.68;;;10.77;;
11414;SDS011;5763;42.714;23.244;2023-06-22T05:21:23;13.57;;;12.15;;
11414;SDS011;5763;42.714;23.244;2023-06-22T05:23:50;16.63;;;12.55;;
11414;SDS011;5763;42.714;23.244;2023-06-22T05:26:17;12.73;;;11.45;;
11414;SDS011;5763;42.714;23.244;2023-06-22T05:28:47;14.98;;;12.05;;
11414;SDS011;5763;42.714;23.244;2023-06-22T05:31:15;14.38;;;11.70;;
11414;SDS011;5763;42.714;23.244;2023-06-22T05:33:44;12.93;;;11.55;;
11414;SDS011;5763;42.714;23.244;2023-06-22T05:36:12;23.15;;;18.70;;
11414;SDS011;5763;42.714;23.244;2023-06-22T05:38:39;19.15;;;13.10;;
11414;SDS011;5763;42.714;23.244;2023-06-22T05:41:07;13.75;;;12.35;;
11414;SDS011;5763;42.714;23.244;2023-06-22T05:43:34;15.35;;;12.90;;
11414;SDS011;5763;42.714;23.244;2023-06-22T05:46:03;14.57;;;12.77;;
11414;SDS011;5763;42.714;23.244;2023-06-22T05:48:30;14.85;;;12.88;;
11414;SDS011;5763;42.714;23.244;2023-06-22T05:50:57;14.07;;;12.57;;
11414;SDS011;5763;42.714;23.244;2023-06-22T05:53:24;13.90;;;12.45;;
11414;SDS011;5763;42.714;23.244;2023-06-22T05:55:51;14.82;;;13.32;;
11414;SDS011;5763;42.714;23.244;2023-06-22T05:58:18;28.58;;;25.67;;
11414;SDS011;5763;42.714;23.244;2023-06-22T06:00:45;20.50;;;17.90;;
11414;SDS011;5763;42.714;23.244;2023-06-22T06:03:13;15.70;;;14.18;;
11414;SDS011;5763;42.714;23.244;2023-06-22T06:05:42;16.30;;;14.25;;
11414;SDS011;5763;42.714;23.244;2023-06-22T06:08:12;15.48;;;12.75;;
11414;SDS011;5763;42.714;23.244;2023-06-22T06:10:40;15.43;;;13.75;;
11414;SDS011;5763;42.714;23.244;2023-06-22T06:13:07;16.10;;;14.40;;
11414;SDS011;5763;42.714;23.244;2023-06-22T06:15:34;14.23;;;12.80;;
11414;SDS011;5763;42.714;23.244;2023-06-22T06:18:01;16.98;;;12.95;;
11414;SDS011;5763;42.714;23.244;2023-06-22T06:20:31;15.20;;;12.90;;
11414;SDS011;5763;42.714;23.244;2023-06-22T06:22:58;15.15;;;13.18;;
11414;SDS011;5763;42.714;23.244;2023-06-22T06:25:27;16.60;;;13.30;;
11414;SDS011;5763;42.714;23.244;2023-06-22T06:27:53;14.65;;;11.60;;
11414;SDS011;5763;42.714;23.244;2023-06-22T06:30:21;14.77;;;11.55;;
11414;SDS011;5763;42.714;23.244;2023-06-22T06:32:49;16.15;;;12.05;;
11414;SDS011;5763;42.714;23.244;2023-06-22T06:35:16;14.57;;;12.27;;
11414;SDS011;5763;42.714;23.244;2023-06-22T06:37:45;14.73;;;12.75;;
11414;SDS011;5763;42.714;23.244;2023-06-22T06:40:14;13.13;;;11.73;;
11414;SDS011;5763;42.714;23.244;2023-06-22T06:42:42;15.70;;;12.48;;
11414;SDS011;5763;42.714;23.244;2023-06-22T06:45:10;15.73;;;11.93;;
11414;SDS011;5763;42.714;23.244;2023-06-22T06:47:38;13.35;;;11.88;;
11414;SDS011;5763;42.714;23.244;2023-06-22T06:50:05;17.20;;;12.13;;
11414;SDS011;5763;42.714;23.244;2023-06-22T06:52:33;14.25;;;11.23;;
11414;SDS011;5763;42.714;23.244;2023-06-22T06:55:01;12.88;;;11.00;;
11414;SDS011;5763;42.714;23.244;2023-06-22T06:57:30;12.95;;;10.98;;
11414;SDS011;5763;42.714;23.244;2023-06-22T06:59:59;12.80;;;11.40;;
11414;SDS011;5763;42.714;23.244;2023-06-22T07:02:26;14.15;;;11.80;;
11414;SDS011;5763;42.714;23.244;2023-06-22T07:04:56;12.85;;;11.18;;
11414;SDS011;5763;42.714;23.244;2023-06-22T07:07:23;13.85;;;11.32;;
11414;SDS011;5763;42.714;23.244;2023-06-22T07:09:50;13.02;;;10.65;;
11414;SDS011;5763;42.714;23.244;2023-06-22T07:12:19;13.57;;;11.35;;
11414;SDS011;5763;42.714;23.244;2023-06-22T07:14:46;23.48;;;12.02;;
11414;SDS011;5763;42.714;23.244;2023-06-22T07:17:13;26.58;;;15.27;;
11414;SDS011;5763;42.714;23.244;2023-06-22T07:19:40;16.33;;;12.10;;
11414;SDS011;5763;42.714;23.244;2023-06-22T07:22:08;12.52;;;10.95;;
11414;SDS011;5763;42.714;23.244;2023-06-22T07:24:35;14.73;;;10.50;;
11414;SDS011;5763;42.714;23.244;2023-06-22T07:27:02;12.40;;;11.13;;
11414;SDS011;5763;42.714;23.244;2023-06-22T07:29:33;12.65;;;10.40;;
11414;SDS011;5763;42.714;23.244;2023-06-22T07:32:00;11.45;;;10.07;;
11414;SDS011;5763;42.714;23.244;2023-06-22T07:34:29;11.65;;;10.38;;
11414;SDS011;5763;42.714;23.244;2023-06-22T07:36:56;17.27;;;11.98;;
11414;SDS011;5763;42.714;23.244;2023-06-22T07:39:23;12.70;;;11.35;;
11414;SDS011;5763;42.714;23.244;2023-06-22T07:41:51;12.05;;;10.73;;
11414;SDS011;5763;42.714;23.244;2023-06-22T07:44:18;14.93;;;11.25;;
11414;SDS011;5763;42.714;23.244;2023-06-22T07:46:47;12.00;;;10.90;;
11414;SDS011;5763;42.714;23.244;2023-06-22T07:49:14;18.30;;;16.38;;
11414;SDS011;5763;42.714;23.244;2023-06-22T07:51:41;13.35;;;12.05;;
11414;SDS011;5763;42.714;23.244;2023-06-22T07:54:08;14.13;;;12.70;;
11414;SDS011;5763;42.714;23.244;2023-06-22T07:56:36;17.73;;;15.93;;
11414;SDS011;5763;42.714;23.244;2023-06-22T07:59:03;15.27;;;13.68;;
11414;SDS011;5763;42.714;23.244;2023-06-22T08:01:30;14.15;;;12.23;;
11414;SDS011;5763;42.714;23.244;2023-06-22T08:03:58;13.45;;;12.13;;
11414;SDS011;5763;42.714;23.244;2023-06-22T08:06:25;14.35;;;11.77;;
11414;SDS011;5763;42.714;23.244;2023-06-22T08:08:52;13.27;;;12.10;;
11414;SDS011;5763;42.714;23.244;2023-06-22T08:11:19;13.35;;;11.70;;
11414;SDS011;5763;42.714;23.244;2023-06-22T08:13:47;12.65;;;11.50;;
11414;SDS011;5763;42.714;23.244;2023-06-22T08:16:14;12.55;;;11.43;;
11414;SDS011;5763;42.714;23.244;2023-06-22T08:18:41;12.65;;;11.43;;
11414;SDS011;5763;42.714;23.244;2023-06-22T08:21:09;13.30;;;11.85;;
11414;SDS011;5763;42.714;23.244;2023-06-22T08:23:36;12.05;;;11.05;;
11414;SDS011;5763;42.714;23.244;2023-06-22T08:26:03;12.60;;;11.50;;
11414;SDS011;5763;42.714;23.244;2023-06-22T08:28:30;11.98;;;10.88;;
11414;SDS011;5763;42.714;23.244;2023-06-22T08:30:57;11.57;;;10.48;;
11414;SDS011;5763;42.714;23.244;2023-06-22T08:33:24;12.45;;;11.25;;
11414;SDS011;5763;42.714;23.244;2023-06-22T08:35:53;13.77;;;11.85;;
11414;SDS011;5763;42.714;23.244;2023-06-22T08:38:22;13.00;;;10.70;;
11414;SDS011;5763;42.714;23.244;2023-06-22T08:40:48;12.98;;;11.55;;
11414;SDS011;5763;42.714;23.244;2023-06-22T08:43:15;11.40;;;10.30;;
11414;SDS011;5763;42.714;23.244;2023-06-22T08:45:42;11.63;;;10.45;;
11414;SDS011;5763;42.714;23.244;2023-06-22T08:48:09;12.65;;;11.38;;
11414;SDS011;5763;42.714;23.244;2023-06-22T08:50:36;14.00;;;11.18;;
11414;SDS011;5763;42.714;23.244;2023-06-22T08:53:02;13.13;;;11.88;;
11414;SDS011;5763;42.714;23.244;2023-06-22T08:55:31;10.70;;;9.80;;
11414;SDS011;5763;42.714;23.244;2023-06-22T08:57:58;10.32;;;9.27;;
11414;SDS011;5763;42.714;23.244;2023-06-22T09:00:25;10.02;;;8.82;;
11414;SDS011;5763;42.714;23.244;2023-06-22T09:02:54;9.05;;;8.27;;
11414;SDS011;5763;42.714;23.244;2023-06-22T09:05:23;10.82;;;9.93;;
11414;SDS011;5763;42.714;23.244;2023-06-22T09:07:51;10.13;;;8.98;;
11414;SDS011;5763;42.714;23.244;2023-06-22T09:10:19;9.50;;;8.60;;
11414;SDS011;5763;42.714;23.244;2023-06-22T09:12:47;9.10;;;8.38;;
11414;SDS011;5763;42.714;23.244;2023-06-22T09:15:14;8.70;;;8.00;;
11414;SDS011;5763;42.714;23.244;2023-06-22T09:17:41;9.23;;;8.32;;
11414;SDS011;5763;42.714;23.244;2023-06-22T09:20:09;9.07;;;8.27;;
11414;SDS011;5763;42.714;23.244;2023-06-22T09:22:36;9.35;;;8.32;;
11414;SDS011;5763;42.714;23.244;2023-06-22T09:25:03;9.32;;;8.52;;
11414;SDS011;5763;42.714;23.244;2023-06-22T09:27:31;8.82;;;7.93;;
11414;SDS011;5763;42.714;23.244;2023-06-22T09:29:59;9.73;;;8.82;;
11414;SDS011;5763;42.714;23.244;2023-06-22T09:32:25;9.15;;;8.35;;
11414;SDS011;5763;42.714;23.244;2023-06-22T09:34:52;9.23;;;8.43;;
11414;SDS011;5763;42.714;23.244;2023-06-22T09:37:19;9.10;;;8.23;;
11414;SDS011;5763;42.714;23.244;2023-06-22T09:39:45;8.90;;;8.02;;
11414;SDS011;5763;42.714;23.244;2023-06-22T09:42:12;8.70;;;7.90;;
11414;SDS011;5763;42.714;23.244;2023-06-22T09:44:39;8.90;;;8.10;;
11414;SDS011;5763;42.714;23.244;2023-06-22T09:47:07;8.65;;;7.72;;
11414;SDS011;5763;42.714;23.244;2023-06-22T09:49:34;8.85;;;8.05;;
11414;SDS011;5763;42.714;23.244;2023-06-22T09:52:01;7.82;;;7.18;;
11414;SDS011;5763;42.714;23.244;2023-06-22T09:54:27;9.75;;;8.00;;
11414;SDS011;5763;42.714;23.244;2023-06-22T09:56:54;9.02;;;7.68;;
11414;SDS011;5763;42.714;23.244;2023-06-22T09:59:21;8.88;;;8.05;;
11414;SDS011;5763;42.714;23.244;2023-06-22T10:01:48;11.00;;;10.00;;
11414;SDS011;5763;42.714;23.244;2023-06-22T10:04:16;10.18;;;9.20;;
11414;SDS011;5763;42.714;23.244;2023-06-22T10:06:43;9.13;;;8.27;;
11414;SDS011;5763;42.714;23.244;2023-06-22T10:09:09;8.18;;;7.55;;
11414;SDS011;5763;42.714;23.244;2023-06-22T10:11:36;8.35;;;7.65;;
11414;SDS011;5763;42.714;23.244;2023-06-22T10:14:03;7.68;;;6.97;;
11414;SDS011;5763;42.714;23.244;2023-06-22T10:16:30;7.97;;;7.28;;
11414;SDS011;5763;42.714;23.244;2023-06-22T10:18:58;8.38;;;7.57;;
11414;SDS011;5763;42.714;23.244;2023-06-22T10:21:26;8.13;;;7.43;;
11414;SDS011;5763;42.714;23.244;2023-06-22T10:23:53;8.52;;;7.82;;
11414;SDS011;5763;42.714;23.244;2023-06-22T10:26:20;8.82;;;7.90;;
11414;SDS011;5763;42.714;23.244;2023-06-22T10:28:47;8.05;;;7.43;;
11414;SDS011;5763;42.714;23.244;2023-06-22T10:31:14;8.40;;;7.65;;
11414;SDS011;5763;42.714;23.244;2023-06-22T10:33:41;8.45;;;7.65;;
11414;SDS011;5763;42.714;23.244;2023-06-22T10:36:09;8.57;;;7.78;;
11414;SDS011;5763;42.714;23.244;2023-06-22T10:38:37;8.20;;;7.40;;
11414;SDS011;5763;42.714;23.244;2023-06-22T10:41:04;8.13;;;7.32;;
11414;SDS011;5763;42.714;23.244;2023-06-22T10:43:31;8.20;;;7.50;;
11414;SDS011;5763;42.714;23.244;2023-06-22T10:45:58;8.38;;;7.63;;
11414;SDS011;5763;42.714;23.244;2023-06-22T10:48:25;8.23;;;7.53;;
11414;SDS011;5763;42.714;23.244;2023-06-22T10:50:52;8.68;;;7.90;;
11414;SDS011;5763;42.714;23.244;2023-06-22T10:53:19;8.68;;;7.88;;
11414;SDS011;5763;42.714;23.244;2023-06-22T10:55:48;8.52;;;7.72;;
11414;SDS011;5763;42.714;23.244;2023-06-22T10:58:15;8.23;;;7.53;;
11414;SDS011;5763;42.714;23.244;2023-06-22T11:00:43;9.10;;;7.70;;
11414;SDS011;5763;42.714;23.244;2023-06-22T11:03:10;8.18;;;7.47;;
11414;SDS011;5763;42.714;23.244;2023-06-22T11:05:39;8.18;;;7.38;;
11414;SDS011;5763;42.714;23.244;2023-06-22T11:08:06;7.65;;;7.05;;
11414;SDS011;5763;42.714;23.244;2023-06-22T11:10:33;8.32;;;7.43;;
11414;SDS011;5763;42.714;23.244;2023-06-22T11:13:01;7.80;;;7.10;;
11414;SDS011;5763;42.714;23.244;2023-06-22T11:15:29;7.88;;;7.18;;
11414;SDS011;5763;42.714;23.244;2023-06-22T11:17:56;8.95;;;8.10;;
11414;SDS011;5763;42.714;23.244;2023-06-22T11:20:22;8.38;;;7.65;;
11414;SDS011;5763;42.714;23.244;2023-06-22T11:22:49;8.13;;;7.45;;
11414;SDS011;5763;42.714;23.244;2023-06-22T11:25:16;8.63;;;7.82;;
11414;SDS011;5763;42.714;23.244;2023-06-22T11:27:43;7.85;;;7.25;;
11414;SDS011;5763;42.714;23.244;2023-06-22T11:30:12;7.80;;;7.18;;
11414;SDS011;5763;42.714;23.244;2023-06-22T11:32:39;7.55;;;6.85;;
11414;SDS011;5763;42.714;23.244;2023-06-22T11:35:07;7.95;;;7.10;;
11414;SDS011;5763;42.714;23.244;2023-06-22T11:37:34;8.20;;;7.50;;
11414;SDS011;5763;42.714;23.244;2023-06-22T11:40:01;8.00;;;7.30;;
11414;SDS011;5763;42.714;23.244;2023-06-22T11:42:30;8.52;;;7.82;;
11414;SDS011;5763;42.714;23.244;2023-06-22T11:44:57;9.40;;;8.50;;
11414;SDS011;5763;42.714;23.244;2023-06-22T11:47:25;8.98;;;8.13;;
11414;SDS011;5763;42.714;23.244;2023-06-22T11:49:52;9.00;;;8.23;;
11414;SDS011;5763;42.714;23.244;2023-06-22T11:52:18;8.77;;;7.93;;
11414;SDS011;5763;42.714;23.244;2023-06-22T11:54:46;9.05;;;8.23;;
11414;SDS011;5763;42.714;23.244;2023-06-22T11:57:13;9.45;;;8.55;;
11414;SDS011;5763;42.714;23.244;2023-06-22T11:59:40;10.35;;;9.15;;
11414;SDS011;5763;42.714;23.244;2023-06-22T12:02:07;9.65;;;8.82;;
11414;SDS011;5763;42.714;23.244;2023-06-22T12:04:36;10.30;;;9.40;;
11414;SDS011;5763;42.714;23.244;2023-06-22T12:07:03;11.55;;;10.52;;
11414;SDS011;5763;42.714;23.244;2023-06-22T12:09:30;13.18;;;11.75;;
11414;SDS011;5763;42.714;23.244;2023-06-22T12:11:56;11.35;;;10.25;;
11414;SDS011;5763;42.714;23.244;2023-06-22T12:14:23;12.10;;;10.30;;
11414;SDS011;5763;42.714;23.244;2023-06-22T12:16:50;11.20;;;10.23;;
11414;SDS011;5763;42.714;23.244;2023-06-22T12:19:17;11.90;;;10.80;;
11414;SDS011;5763;42.714;23.244;2023-06-22T12:21:45;12.88;;;11.50;;
11414;SDS011;5763;42.714;23.244;2023-06-22T12:24:12;18.92;;;13.50;;
11414;SDS011;5763;42.714;23.244;2023-06-22T12:26:38;16.65;;;14.65;;
11414;SDS011;5763;42.714;23.244;2023-06-22T12:29:05;10.73;;;7.63;;
11414;SDS011;5763;42.714;23.244;2023-06-22T12:31:32;8.57;;;5.80;;
11414;SDS011;5763;42.714;23.244;2023-06-22T12:33:59;9.80;;;5.22;;
11414;SDS011;5763;42.714;23.244;2023-06-22T12:36:25;5.97;;;4.70;;
11414;SDS011;5763;42.714;23.244;2023-06-22T12:38:53;6.35;;;5.10;;
11414;SDS011;5763;42.714;23.244;2023-06-22T12:41:20;7.72;;;4.85;;
11414;SDS011;5763;42.714;23.244;2023-06-22T12:43:47;5.90;;;4.38;;
11414;SDS011;5763;42.714;23.244;2023-06-22T12:46:14;9.45;;;4.95;;
11414;SDS011;5763;42.714;23.244;2023-06-22T12:48:40;7.95;;;4.80;;
11414;SDS011;5763;42.714;23.244;2023-06-22T12:51:08;7.68;;;4.82;;
11414;SDS011;5763;42.714;23.244;2023-06-22T12:53:35;5.82;;;4.80;;
11414;SDS011;5763;42.714;23.244;2023-06-22T12:56:03;6.93;;;4.45;;
11414;SDS011;5763;42.714;23.244;2023-06-22T12:58:30;9.68;;;5.50;;
11414;SDS011;5763;42.714;23.244;2023-06-22T13:00:57;5.88;;;5.38;;
11414;SDS011;5763;42.714;23.244;2023-06-22T13:03:23;6.57;;;5.88;;
11414;SDS011;5763;42.714;23.244;2023-06-22T13:05:52;6.10;;;5.50;;
11414;SDS011;5763;42.714;23.244;2023-06-22T13:08:20;9.18;;;6.03;;
11414;SDS011;5763;42.714;23.244;2023-06-22T13:10:48;6.45;;;5.70;;
11414;SDS011;5763;42.714;23.244;2023-06-22T13:13:16;8.00;;;6.15;;
11414;SDS011;5763;42.714;23.244;2023-06-22T13:15:43;7.60;;;6.57;;
11414;SDS011;5763;42.714;23.244;2023-06-22T13:18:10;7.18;;;6.28;;
11414;SDS011;5763;42.714;23.244;2023-06-22T13:20:37;6.90;;;6.10;;
11414;SDS011;5763;42.714;23.244;2023-06-22T13:23:04;9.15;;;5.90;;
11414;SDS011;5763;42.714;23.244;2023-06-22T13:25:30;9.02;;;6.88;;
11414;SDS011;5763;42.714;23.244;2023-06-22T13:27:57;10.00;;;6.72;;
11414;SDS011;5763;42.714;23.244;2023-06-22T13:30:25;9.52;;;6.25;;
11414;SDS011;5763;42.714;23.244;2023-06-22T13:32:52;8.18;;;6.60;;
11414;SDS011;5763;42.714;23.244;2023-06-22T13:35:19;7.90;;;6.35;;
11414;SDS011;5763;42.714;23.244;2023-06-22T13:37:45;8.05;;;7.18;;
11414;SDS011;5763;42.714;23.244;2023-06-22T13:40:12;7.45;;;5.80;;
11414;SDS011;5763;42.714;23.244;2023-06-22T13:42:39;7.10;;;6.40;;
11414;SDS011;5763;42.714;23.244;2023-06-22T13:45:07;7.95;;;6.70;;
11414;SDS011;5763;42.714;23.244;2023-06-22T13:47:36;8.75;;;7.00;;
11414;SDS011;5763;42.714;23.244;2023-06-22T13:50:03;7.82;;;6.93;;
11414;SDS011;5763;42.714;23.244;2023-06-22T13:52:31;9.57;;;7.55;;
11414;SDS011;5763;42.714;23.244;2023-06-22T13:54:57;8.65;;;7.38;;
11414;SDS011;5763;42.714;23.244;2023-06-22T13:57:24;9.63;;;8.38;;
11414;SDS011;5763;42.714;23.244;2023-06-22T13:59:51;8.68;;;7.65;;
11414;SDS011;5763;42.714;23.244;2023-06-22T14:02:17;8.35;;;7.38;;
11414;SDS011;5763;42.714;23.244;2023-06-22T14:04:45;8.82;;;7.07;;
11414;SDS011;5763;42.714;23.244;2023-06-22T14:07:12;8.70;;;7.47;;
11414;SDS011;5763;42.714;23.244;2023-06-22T14:09:39;7.85;;;6.70;;
11414;SDS011;5763;42.714;23.244;2023-06-22T14:12:09;8.75;;;6.53;;
11414;SDS011;5763;42.714;23.244;2023-06-22T14:14:36;9.50;;;7.07;;
11414;SDS011;5763;42.714;23.244;2023-06-22T14:17:03;9.30;;;8.23;;
11414;SDS011;5763;42.714;23.244;2023-06-22T14:19:30;8.70;;;7.90;;
11414;SDS011;5763;42.714;23.244;2023-06-22T14:21:59;10.02;;;7.63;;
11414;SDS011;5763;42.714;23.244;2023-06-22T14:24:25;8.15;;;7.45;;
11414;SDS011;5763;42.714;23.244;2023-06-22T14:26:53;8.50;;;7.70;;
11414;SDS011;5763;42.714;23.244;2023-06-22T14:29:20;8.73;;;7.85;;
11414;SDS011;5763;42.714;23.244;2023-06-22T14:31:47;9.00;;;7.70;;
11414;SDS011;5763;42.714;23.244;2023-06-22T14:34:15;8.40;;;7.47;;
11414;SDS011;5763;42.714;23.244;2023-06-22T14:36:42;7.70;;;7.03;;
11414;SDS011;5763;42.714;23.244;2023-06-22T14:39:10;9.00;;;8.07;;
11414;SDS011;5763;42.714;23.244;2023-06-22T14:41:37;9.77;;;8.82;;